Time,TemperatureF,DewpointF,PressureIn,WindDirection,WindDirectionDegrees,WindSpeedMPH,WindSpeedGustMPH,Humidity,HourlyPrecipIn,Conditions,Clouds,dailyrainin,SoftwareType,DateUTC
2013-08-22 00:24:00,67.0,-99.9,29.98,South,188,11.0,14.0,-999,-99.99,,,-99.99,,2013-08-22 04:24:00,
2013-08-22 00:34:00,67.0,-99.9,29.98,South,188,11.0,14.0,-999,-99.99,,,-99.99,,2013-08-22 04:34:00,
2013-08-22 00:54:00,67.0,-99.9,29.93,South,187,5.0,19.0,-999,-99.99,,,-99.99,,2013-08-22 04:54:00,
2013-08-22 01:13:00,67.0,-99.9,29.94,SSW,199,5.0,15.0,-999,-99.99,,,-99.99,,2013-08-22 05:13:00,
2013-08-22 01:23:00,67.0,-99.9,29.93,South,187,5.0,19.0,-999,-99.99,,,-99.99,,2013-08-22 05:23:00,
2013-08-22 01:34:00,67.0,-99.9,29.93,South,187,5.0,19.0,-999,-99.99,,,-99.99,,2013-08-22 05:34:00,
2013-08-22 01:43:00,67.0,-99.9,29.93,South,187,5.0,19.0,-999,-99.99,,,-99.99,,2013-08-22 05:43:00,
2013-08-22 01:53:00,70.0,-99.9,29.95,WNW,285,10.0,22.0,-999,-99.99,,,-99.99,,2013-08-22 05:53:00,
2013-08-22 02:12:00,70.0,-99.9,29.93,WNW,284,14.0,16.0,-999,-99.99,,,-99.99,,2013-08-22 06:12:00,
2013-08-22 02:22:00,70.0,-99.9,29.93,WNW,284,14.0,16.0,-999,-99.99,,,-99.99,,2013-08-22 06:22:00,
2013-08-22 02:42:00,70.0,-99.9,29.95,WNW,285,10.0,22.0,-999,-99.99,,,-99.99,,2013-08-22 06:42:00,
2013-08-22 02:52:00,70.0,-99.9,29.95,WNW,285,10.0,22.0,-999,-99.99,,,-99.99,,2013-08-22 06:52:00,
2013-08-22 03:12:00,69.0,-99.9,29.94,WNW,300,9.0,16.0,-999,-99.99,,,-99.99,,2013-08-22 07:12:00,
2013-08-22 03:42:00,69.0,-99.9,29.93,WNW,295,14.0,23.0,-999,-99.99,,,-99.99,,2013-08-22 07:42:00,
2013-08-22 03:53:00,69.0,-99.9,29.93,WNW,295,14.0,23.0,-999,-99.99,,,-99.99,,2013-08-22 07:53:00,
2013-08-22 04:12:00,68.0,-99.9,29.95,WNW,289,17.0,19.0,-999,-99.99,,,-99.99,,2013-08-22 08:12:00,
2013-08-22 04:23:00,68.0,-99.9,29.95,WNW,289,17.0,19.0,-999,-99.99,,,-99.99,,2013-08-22 08:23:00,
2013-08-22 04:43:00,69.0,-99.9,29.94,WNW,284,19.0,24.0,-999,-99.99,,,-99.99,,2013-08-22 08:43:00,
2013-08-22 04:53:00,68.0,-99.9,29.99,West,269,12.0,22.0,-999,-99.99,,,-99.99,,2013-08-22 08:53:00,
2013-08-22 05:11:00,68.0,-99.9,30.01,WSW,248,11.0,14.0,-999,-99.99,,,-99.99,,2013-08-22 09:11:00,
2013-08-22 05:40:00,67.0,-99.9,30.01,SSW,207,3.0,8.0,-999,-99.99,,,-99.99,,2013-08-22 09:40:00,
2013-08-22 05:54:00,68.0,-99.9,30.02,WSW,249,12.0,17.0,-999,-99.99,,,-99.99,,2013-08-22 09:54:00,
2013-08-22 06:12:00,67.0,-99.9,30.01,SSW,207,3.0,8.0,-999,-99.99,,,-99.99,,2013-08-22 10:12:00,
2013-08-22 06:23:00,67.0,-99.9,30.01,SSW,207,3.0,8.0,-999,-99.99,,,-99.99,,2013-08-22 10:23:00,
2013-08-22 06:30:00,66.0,-99.9,30.02,SW,227,6.0,12.0,-999,-99.99,,,-99.99,,2013-08-22 10:30:00,
2013-08-22 06:32:00,67.0,-99.9,30.01,SSW,207,3.0,8.0,-999,-99.99,,,-99.99,,2013-08-22 10:32:00,
2013-08-22 08:32:00,66.0,-99.9,30.02,SW,236,8.0,11.0,-999,-99.99,,,-99.99,,2013-08-22 12:32:00,
2013-08-22 08:40:00,69.0,-99.9,30.02,WSW,257,10.0,12.0,-999,-99.99,,,-99.99,,2013-08-22 12:40:00,
2013-08-22 08:52:00,69.0,-99.9,30.03,West,262,11.0,13.0,-999,-99.99,,,-99.99,,2013-08-22 12:52:00,
2013-08-22 09:02:00,69.0,-99.9,30.03,West,262,11.0,13.0,-999,-99.99,,,-99.99,,2013-08-22 13:02:00,
2013-08-22 09:22:00,69.0,-99.9,30.02,WSW,257,10.0,12.0,-999,-99.99,,,-99.99,,2013-08-22 13:22:00,
2013-08-22 09:32:00,69.0,-99.9,30.02,WSW,257,10.0,12.0,-999,-99.99,,,-99.99,,2013-08-22 13:32:00,
2013-08-22 10:22:00,69.0,-99.9,30.05,West,274,9.0,15.0,-999,-99.99,,,-99.99,,2013-08-22 14:22:00,
2013-08-22 10:33:00,69.0,-99.9,30.05,West,274,9.0,15.0,-999,-99.99,,,-99.99,,2013-08-22 14:33:00,
2013-08-22 10:42:00,69.0,-99.9,30.05,West,274,9.0,15.0,-999,-99.99,,,-99.99,,2013-08-22 14:42:00,
2013-08-22 10:52:00,69.0,-99.9,30.05,West,274,9.0,15.0,-999,-99.99,,,-99.99,,2013-08-22 14:52:00,
2013-08-22 11:22:00,69.0,-99.9,30.08,NNW,343,9.0,12.0,-999,-99.99,,,-99.99,,2013-08-22 15:22:00,
2013-08-22 11:40:00,74.0,-99.9,30.08,West,267,2.0,3.0,-999,-99.99,,,-99.99,,2013-08-22 15:40:00,
2013-08-22 11:44:00,69.0,-99.9,30.08,NNW,343,9.0,12.0,-999,-99.99,,,-99.99,,2013-08-22 15:44:00,
2013-08-22 11:55:00,69.0,-99.9,30.08,NNW,343,9.0,12.0,-999,-99.99,,,-99.99,,2013-08-22 15:55:00,
2013-08-22 12:14:00,74.0,-99.9,30.08,West,267,2.0,3.0,-999,-99.99,,,-99.99,,2013-08-22 16:14:00,
2013-08-22 12:25:00,74.0,-99.9,30.08,West,267,2.0,3.0,-999,-99.99,,,-99.99,,2013-08-22 16:25:00,
2013-08-22 12:34:00,74.0,-99.9,30.08,West,267,2.0,3.0,-999,-99.99,,,-99.99,,2013-08-22 16:34:00,
2013-08-22 13:24:00,72.0,-99.9,30.09,West,279,7.0,8.0,-999,-99.99,,,-99.99,,2013-08-22 17:24:00,
2013-08-22 13:40:00,74.0,-99.9,30.09,NNW,333,9.0,10.0,-999,-99.99,,,-99.99,,2013-08-22 17:40:00,
2013-08-22 13:53:00,73.0,-99.9,30.10,WNW,292,9.0,10.0,-999,-99.99,,,-99.99,,2013-08-22 17:53:00,
2013-08-22 14:12:00,74.0,-99.9,30.09,NNW,333,9.0,10.0,-999,-99.99,,,-99.99,,2013-08-22 18:12:00,
2013-08-22 14:22:00,74.0,-99.9,30.09,NNW,333,9.0,10.0,-999,-99.99,,,-99.99,,2013-08-22 18:22:00,
2013-08-22 14:32:00,74.0,-99.9,30.09,NNW,333,9.0,10.0,-999,-99.99,,,-99.99,,2013-08-22 18:32:00,
2013-08-22 15:11:00,73.0,-99.9,30.08,NNW,338,7.0,10.0,-999,-99.99,,,-99.99,,2013-08-22 19:11:00,
2013-08-22 15:22:00,73.0,-99.9,30.08,NNW,338,7.0,10.0,-999,-99.99,,,-99.99,,2013-08-22 19:22:00,
2013-08-22 15:33:00,73.0,-99.9,30.08,NNW,338,7.0,10.0,-999,-99.99,,,-99.99,,2013-08-22 19:33:00,
2013-08-22 15:40:00,74.0,-99.9,30.08,NNW,328,7.0,8.0,-999,-99.99,,,-99.99,,2013-08-22 19:40:00,
2013-08-22 15:53:00,73.0,-99.9,30.08,NNW,340,9.0,11.0,-999,-99.99,,,-99.99,,2013-08-22 19:53:00,
2013-08-22 16:12:00,74.0,-99.9,30.08,NNW,328,7.0,8.0,-999,-99.99,,,-99.99,,2013-08-22 20:12:00,
2013-08-22 16:23:00,74.0,-99.9,30.08,NNW,328,7.0,8.0,-999,-99.99,,,-99.99,,2013-08-22 20:23:00,
2013-08-22 16:32:00,74.0,-99.9,30.08,NNW,328,7.0,8.0,-999,-99.99,,,-99.99,,2013-08-22 20:32:00,
2013-08-22 16:40:00,75.0,-99.9,30.08,WNW,295,5.0,6.0,-999,-99.99,,,-99.99,,2013-08-22 20:40:00,
2013-08-22 17:22:00,75.0,-99.9,30.08,WNW,295,5.0,6.0,-999,-99.99,,,-99.99,,2013-08-22 21:22:00,
2013-08-22 17:34:00,75.0,-99.9,30.08,WNW,295,5.0,6.0,-999,-99.99,,,-99.99,,2013-08-22 21:34:00,
2013-08-22 17:40:00,75.0,-99.9,30.07,West,269,6.0,7.0,-999,-99.99,,,-99.99,,2013-08-22 21:40:00,
2013-08-22 18:25:00,75.0,-99.9,30.07,West,269,6.0,7.0,-999,-99.99,,,-99.99,,2013-08-22 22:25:00,
2013-08-22 18:34:00,75.0,-99.9,30.07,West,269,6.0,7.0,-999,-99.99,,,-99.99,,2013-08-22 22:34:00,
2013-08-22 19:40:00,74.0,-99.9,-100.00,NW,318,7.0,9.0,-999,-99.99,,,-99.99,,2013-08-22 23:40:00,
2013-08-22 19:53:00,74.0,-99.9,-100.00,WNW,282,6.0,11.0,-999,-99.99,,,-99.99,,2013-08-22 23:53:00,
2013-08-22 20:12:00,74.0,-99.9,-100.00,NW,318,7.0,9.0,-999,-99.99,,,-99.99,,2013-08-23 00:12:00,
2013-08-22 20:23:00,74.0,-99.9,-100.00,NW,318,7.0,9.0,-999,-99.99,,,-99.99,,2013-08-23 00:23:00,
2013-08-22 20:33:00,74.0,-99.9,-100.00,NW,318,7.0,9.0,-999,-99.99,,,-99.99,,2013-08-23 00:33:00,
2013-08-22 21:42:00,70.0,-99.9,-100.00,NNE,23,12.0,15.0,-999,-99.99,,,-99.99,,2013-08-23 01:42:00,
2013-08-22 21:52:00,70.0,-99.9,-100.00,NNE,23,12.0,15.0,-999,-99.99,,,-99.99,,2013-08-23 01:52:00,
2013-08-22 22:11:00,70.0,-99.9,-100.00,NE,48,15.0,17.0,-999,-99.99,,,-99.99,,2013-08-23 02:11:00,
2013-08-22 22:52:00,70.0,-99.9,30.11,NE,45,14.0,18.0,-999,-99.99,,,-99.99,,2013-08-23 02:52:00,
2013-08-22 23:12:00,70.0,-99.9,30.11,NE,41,15.0,18.0,-999,-99.99,,,-99.99,,2013-08-23 03:12:00,
2013-08-22 23:23:00,70.0,-99.9,30.12,NE,41,15.0,18.0,-999,-99.99,,,-99.99,,2013-08-23 03:23:00,
2013-08-22 23:44:00,69.0,-99.9,30.12,NE,36,17.0,19.0,-999,-99.99,,,-99.99,,2013-08-23 03:44:00,
2013-08-22 23:55:00,69.0,-99.9,30.12,NE,36,17.0,19.0,-999,-99.99,,,-99.99,,2013-08-23 03:55:00,